KALS

San Luis Valley Regional/Bergman Field Airport

Alamosa, Colorado, USA
METAR KALS 170552Z AUTO 00000KT 10SM SCT110 M11/M13 A2985 RMK AO2 SLP142 T11111128 11006 21111 53015
Observed Flight Rules
Dec-17 @ 05:52 UTC (30 minutes ago) Visual Flight Rules
Wind Visibility Clouds
Calm 10 miles
  • Scattered at 11,000' AGL
Temperatures Readings
Current -11°C / 12°F
Dewpoint -13°C / 9°F
Humidity 85%
Altimeter 29.85" Hg
Pressure 1014.2 hPa
Elevation 2299
METAR KALS 170552Z AUTO 00000KT 10SM SCT110 M11/M13 A2985 RMK AO2 SLP142 T11111128 11006 21111 53015
Observed Flight Rules
Dec-17 @ 05:52 UTC
(30 minutes ago)
VFR
Wind Visibility
Calm 10 miles
Clouds
  • Scattered at 11,000' AGL
Temperature Dewpoint
-11°C / 12°F -13°C / 9°F
Humidity Altimeter Pressure
85% 29.85" Hg 1014.2 hPa